Kline, South Carolina
Current Conditions -  °F | °C
As of 1:35 AM on Thursday 29 Jan 2015 (Local Time) from KBNL Reporting Station
NA  
Wind Chill: -1°   Ceiling: NA
Heat Index: -1°   Visibility: NA
Dew Point: -3°   Wind: 0mph
Humidity: 86%   Direction: NA
Pressure: 30.33"   Gusts: NA
Location:  33.2109°N, 81.3471°W
Report Text: KBNL 290635Z AUTO 00000KT M01/M03 A3033 RMK AO2
Loading
Personal Weather Stations






























Interactive Weather Map New forecast layout! Learn more

10-Day Weather Forecast

Advertisements
Track Severe Weather on mobile